Time;durP1;ratioP1;P1;durP2;ratioP2;P2;SDS_P1;SDS_P2;PMS_P1;PMS_P2;Temp;Humidity;BMP_temperature;BMP_pressure;BME280_temperature;BME280_humidity;BME280_pressure;Samples;Min_cycle;Max_cycle;Signal;HPM_P1;HPM_P2
2021/08/30 00:00:34;;;;;;;9.60;8.90;;;14.10;99.90;;;;;;4974127;28;20210;-78
2021/08/30 00:03:01;;;;;;;8.13;7.10;;;14.10;99.90;;;;;;4992770;28;20201;-78
2021/08/30 00:05:28;;;;;;;6.07;5.57;;;14.10;99.90;;;;;;4981035;28;20260;-78
2021/08/30 00:07:56;;;;;;;6.70;6.10;;;14.10;99.90;;;;;;4971584;28;20202;-77
2021/08/30 00:10:24;;;;;;;6.57;5.87;;;14.10;99.90;;;;;;4971606;28;20670;-77
2021/08/30 00:12:51;;;;;;;7.97;6.70;;;14.10;99.90;;;;;;4969258;28;20202;-78
2021/08/30 00:15:20;;;;;;;7.50;6.80;;;14.20;99.90;;;;;;4972601;28;20283;-78
2021/08/30 00:17:47;;;;;;;8.10;6.93;;;14.10;99.90;;;;;;4976703;28;20344;-77
2021/08/30 00:20:16;;;;;;;7.27;6.57;;;14.10;99.90;;;;;;4975475;28;20216;-78
2021/08/30 00:22:43;;;;;;;7.80;7.10;;;14.10;99.90;;;;;;4976006;28;20233;-79
2021/08/30 00:25:12;;;;;;;7.17;6.57;;;14.10;99.90;;;;;;4982759;28;20718;-79
2021/08/30 00:27:39;;;;;;;7.17;6.57;;;14.10;99.90;;;;;;4982478;28;20226;-79
2021/08/30 00:30:07;;;;;;;8.47;6.57;;;14.10;99.90;;;;;;4980048;28;20264;-79
2021/08/30 00:32:34;;;;;;;7.20;6.60;;;14.10;99.90;;;;;;4979186;28;20616;-79
2021/08/30 00:35:01;;;;;;;6.43;5.93;;;14.10;99.90;;;;;;4981717;28;20691;-79
2021/08/30 00:37:28;;;;;;;7.40;6.70;;;14.10;99.90;;;;;;4984295;28;20197;-79
2021/08/30 00:39:55;;;;;;;7.53;6.80;;;14.10;99.90;;;;;;4978543;28;20205;-79
2021/08/30 00:42:23;;;;;;;7.90;7.20;;;14.10;99.90;;;;;;4980173;28;20253;-79
2021/08/30 00:44:50;;;;;;;7.80;7.20;;;14.10;99.90;;;;;;4971076;28;20628;-79
2021/08/30 00:47:16;;;;;;;7.87;7.17;;;14.10;99.90;;;;;;4978600;28;20220;-79
2021/08/30 00:49:44;;;;;;;10.00;9.30;;;14.10;99.90;;;;;;4976792;28;20212;-79
2021/08/30 00:52:11;;;;;;;12.77;11.87;;;14.10;99.90;;;;;;4971079;28;20260;-79
2021/08/30 00:54:38;;;;;;;7.43;6.83;;;14.10;99.90;;;;;;4982226;28;20635;-80
2021/08/30 00:57:05;;;;;;;12.57;11.57;;;14.10;99.90;;;;;;4976006;28;20202;-79
2021/08/30 00:59:38;;;;;;;13.90;13.00;;;14.10;99.90;;;;;;4983147;28;20197;-79
2021/08/30 01:02:05;;;;;;;13.57;12.57;;;14.10;99.90;;;;;;4985027;28;20215;-79
2021/08/30 01:04:32;;;;;;;13.23;12.43;;;14.10;99.90;;;;;;4980204;28;20243;-78
2021/08/30 01:07:01;;;;;;;13.20;12.40;;;14.10;99.90;;;;;;4977491;28;20692;-79
2021/08/30 01:09:34;;;;;;;12.93;12.03;;;14.10;99.90;;;;;;4977770;28;20210;-78
2021/08/30 01:12:09;;;;;;;12.40;11.60;;;14.10;99.90;;;;;;4980078;28;20208;-79
2021/08/30 01:14:45;;;;;;;12.70;11.90;;;14.10;99.90;;;;;;4982031;28;20704;-79
2021/08/30 01:17:12;;;;;;;12.57;11.87;;;14.10;99.90;;;;;;4979005;28;20216;-79
2021/08/30 01:19:47;;;;;;;12.97;12.17;;;14.10;99.90;;;;;;4974704;28;20201;-79
2021/08/30 01:22:16;;;;;;;13.30;12.40;;;14.10;99.90;;;;;;4978924;28;20205;-79
2021/08/30 01:24:44;;;;;;;13.03;12.33;;;14.10;99.90;;;;;;4979840;28;20633;-79
2021/08/30 01:27:11;;;;;;;14.07;13.27;;;14.10;99.90;;;;;;4979873;28;20200;-79
2021/08/30 01:29:47;;;;;;;8.83;8.33;;;14.10;99.90;;;;;;4977198;28;20227;-79
2021/08/30 01:32:31;;;;;;;12.80;12.10;;;14.10;99.90;;;;;;4970607;28;20209;-79
2021/08/30 01:35:00;;;;;;;18.33;17.03;;;14.00;99.90;;;;;;4968327;28;20232;-79
2021/08/30 01:37:29;;;;;;;17.73;16.67;;;14.00;99.90;;;;;;4974265;28;20277;-79
2021/08/30 01:39:56;;;;;;;7.40;6.90;;;14.00;99.90;;;;;;4976314;28;20221;-79
2021/08/30 01:42:24;;;;;;;6.50;6.10;;;14.00;99.90;;;;;;4977589;28;20209;-79
2021/08/30 01:44:51;;;;;;;3.90;3.60;;;14.00;99.90;;;;;;4979701;28;20202;-79
2021/08/30 01:47:20;;;;;;;4.23;3.93;;;14.00;99.90;;;;;;4980004;28;20212;-80
2021/08/30 01:49:55;;;;;;;6.27;5.77;;;14.00;99.90;;;;;;4982123;28;20209;-79
2021/08/30 01:52:22;;;;;;;5.87;5.37;;;14.00;99.90;;;;;;4981083;28;20212;-79
2021/08/30 01:54:49;;;;;;;6.33;5.83;;;14.00;99.90;;;;;;4973511;28;20224;-79
2021/08/30 01:57:20;;;;;;;7.07;6.47;;;14.00;99.90;;;;;;4976410;28;20736;-79
2021/08/30 02:02:33;;;;;;;5.00;4.60;;;14.00;99.90;;;;;;4972764;28;20611;-79
2021/08/30 02:05:01;;;;;;;4.20;3.90;;;13.90;99.90;;;;;;4979405;28;20500;-79
2021/08/30 02:07:28;;;;;;;4.10;3.80;;;14.00;99.90;;;;;;4978947;28;20213;-79
2021/08/30 02:09:54;;;;;;;4.70;4.40;;;14.00;99.90;;;;;;4973247;28;20674;-79
2021/08/30 02:12:21;;;;;;;4.50;4.10;;;14.00;99.90;;;;;;4979632;28;20586;-79
2021/08/30 02:14:48;;;;;;;4.83;4.43;;;14.00;99.90;;;;;;4974719;28;20201;-79
2021/08/30 02:17:23;;;;;;;5.00;4.70;;;14.00;99.90;;;;;;4973526;28;20580;-79
2021/08/30 02:19:56;;;;;;;4.93;4.50;;;14.00;99.90;;;;;;4981288;28;20200;-79
2021/08/30 02:22:33;;;;;;;5.33;4.93;;;14.00;99.90;;;;;;4978093;28;20210;-79
2021/08/30 02:25:05;;;;;;;5.30;4.90;;;14.00;99.90;;;;;;4975265;28;20227;-79
2021/08/30 02:27:40;;;;;;;6.23;5.83;;;14.00;99.90;;;;;;4978621;28;20204;-78
2021/08/30 02:30:13;;;;;;;5.60;5.23;;;14.00;99.90;;;;;;4978925;28;20208;-79
2021/08/30 02:32:43;;;;;;;6.30;5.87;;;14.00;99.90;;;;;;4975067;28;20213;-78
2021/08/30 02:35:13;;;;;;;3.83;3.63;;;14.00;99.90;;;;;;4979174;28;20292;-79
2021/08/30 02:37:43;;;;;;;4.43;4.13;;;14.00;99.90;;;;;;4975990;28;20241;-79
2021/08/30 02:40:11;;;;;;;4.03;3.73;;;14.00;99.90;;;;;;4979641;28;20550;-80
2021/08/30 02:42:42;;;;;;;4.20;3.90;;;14.00;99.90;;;;;;4972068;28;20219;-80
2021/08/30 02:48:17;;;;;;;4.70;4.40;;;14.00;99.90;;;;;;4969923;28;20799;-80
2021/08/30 02:55:33;;;;;;;4.60;4.30;;;14.00;99.90;;;;;;4946690;29;20262;-79
2021/08/30 02:58:32;;;;;;;6.70;6.27;;;14.00;99.90;;;;;;4948285;28;20209;-80
2021/08/30 03:15:37;;;;;;;6.83;6.40;;;14.00;99.90;;;;;;5000573;28;20442;-78
2021/08/30 03:22:06;;;;;;;8.20;7.70;;;14.00;99.90;;;;;;4913319;29;20638;-78
2021/08/30 03:28:13;;;;;;;9.07;8.37;;;13.90;99.90;;;;;;4887004;29;20219;-79
2021/08/30 03:30:48;;;;;;;6.67;6.17;;;13.90;99.90;;;;;;4932217;28;20638;-78
2021/08/30 03:33:22;;;;;;;7.17;6.67;;;13.90;99.90;;;;;;4991815;28;20200;-79
2021/08/30 03:35:53;;;;;;;7.53;6.93;;;13.90;99.90;;;;;;4985788;28;20232;-79
2021/08/30 03:38:23;;;;;;;8.57;7.97;;;13.90;99.90;;;;;;4991917;28;20303;-79
2021/08/30 03:40:51;;;;;;;6.20;5.80;;;13.90;99.90;;;;;;4979181;28;20555;-78
2021/08/30 03:43:19;;;;;;;5.50;5.10;;;13.90;99.90;;;;;;4979548;28;20213;-78
2021/08/30 03:46:04;;;;;;;9.53;8.80;;;13.90;99.90;;;;;;4979266;28;20306;-79
2021/08/30 03:48:36;;;;;;;16.00;14.97;;;13.90;99.90;;;;;;4985029;28;20209;-78
2021/08/30 03:51:09;;;;;;;6.07;5.67;;;13.90;99.90;;;;;;4986408;28;20202;-79
2021/08/30 03:53:41;;;;;;;5.83;5.37;;;13.90;99.90;;;;;;4991350;28;20299;-79
2021/08/30 03:56:12;;;;;;;4.20;3.90;;;13.90;99.90;;;;;;4985431;28;20245;-78
2021/08/30 03:58:56;;;;;;;8.27;7.73;;;13.90;99.90;;;;;;4974362;28;20201;-78
2021/08/30 04:01:30;;;;;;;6.50;6.10;;;13.90;99.90;;;;;;4966731;28;20196;-79
2021/08/30 04:04:15;;;;;;;7.37;6.87;;;13.90;99.90;;;;;;4972050;28;20201;-79
2021/08/30 04:06:44;;;;;;;7.57;7.07;;;13.90;99.90;;;;;;4992835;28;20311;-79
2021/08/30 04:12:26;;;;;;;5.30;4.90;;;13.90;99.90;;;;;;4993229;28;20205;-77
2021/08/30 04:15:55;;;;;;;9.07;8.47;;;13.90;99.90;;;;;;4971053;28;20745;-77
2021/08/30 04:18:34;;;;;;;5.20;4.80;;;13.90;99.90;;;;;;4938278;29;20240;-77
2021/08/30 04:21:07;;;;;;;6.17;5.57;;;13.80;99.90;;;;;;4941540;29;20225;-77
2021/08/30 04:23:36;;;;;;;6.63;6.00;;;13.80;99.90;;;;;;4971191;28;20268;-78
2021/08/30 04:26:03;;;;;;;6.33;5.87;;;13.80;99.90;;;;;;4994020;28;20216;-76
2021/08/30 04:28:31;;;;;;;6.70;6.20;;;13.90;99.90;;;;;;4988573;28;20668;-76
2021/08/30 04:31:07;;;;;;;9.17;8.57;;;13.90;99.90;;;;;;4974547;28;20197;-77
2021/08/30 04:33:35;;;;;;;5.40;5.00;;;13.90;99.90;;;;;;4977460;28;20725;-76
2021/08/30 04:36:02;;;;;;;7.00;6.50;;;13.80;99.90;;;;;;4976547;28;20233;-76
2021/08/30 04:38:29;;;;;;;6.33;5.83;;;13.80;99.90;;;;;;4982256;28;20255;-76
2021/08/30 04:40:55;;;;;;;6.57;5.10;;;13.90;99.90;;;;;;4966741;28;20198;-75
2021/08/30 04:46:12;;;;;;;6.73;6.23;;;13.80;99.90;;;;;;4974762;28;20232;-78
2021/08/30 04:48:56;;;;;;;6.70;6.10;;;13.80;99.90;;;;;;4973195;28;20280;-78
2021/08/30 04:55:11;;;;;;;8.03;7.47;;;13.80;99.90;;;;;;4937442;29;20251;-81
2021/08/30 04:57:47;;;;;;;6.57;6.17;;;13.80;99.90;;;;;;4927023;29;20317;-79
2021/08/30 05:00:15;;;;;;;5.43;5.03;;;13.80;99.90;;;;;;4953792;28;20215;-78
2021/08/30 05:02:42;;;;;;;6.17;5.67;;;13.90;99.90;;;;;;4956148;28;20202;-79
2021/08/30 05:12:26;;;;;;;10.80;9.93;;;13.90;99.90;;;;;;4980582;28;20202;-79
2021/08/30 05:15:07;;;;;;;;;;;;;;;;;;;;;
2021/08/30 05:40:34;;;;;;;7.10;6.60;;;13.90;99.90;;;;;;4985196;28;20263;-79
2021/08/30 05:49:37;;;;;;;9.53;8.93;;;14.00;99.90;;;;;;4953361;29;20204;-81
2021/08/30 05:52:04;;;;;;;8.30;7.70;;;14.00;99.90;;;;;;4955172;29;20195;-81
2021/08/30 05:54:31;;;;;;;5.67;5.20;;;14.00;99.90;;;;;;4954318;29;20209;-81
2021/08/30 05:56:58;;;;;;;5.40;5.00;;;13.90;99.90;;;;;;4955957;29;20251;-78
2021/08/30 05:59:26;;;;;;;5.73;5.23;;;13.90;99.90;;;;;;4954001;29;20746;-80
2021/08/30 06:01:53;;;;;;;5.53;5.07;;;14.00;99.90;;;;;;4956174;28;20203;-78
2021/08/30 06:04:19;;;;;;;8.47;7.87;;;14.00;99.90;;;;;;4953699;29;20253;-79
2021/08/30 06:06:46;;;;;;;7.77;7.17;;;14.00;99.90;;;;;;4954326;29;20202;-79
2021/08/30 06:09:13;;;;;;;9.70;8.90;;;14.00;99.90;;;;;;4954234;29;20206;-80
2021/08/30 06:11:40;;;;;;;13.13;10.47;;;14.00;99.90;;;;;;4955396;29;20332;-81
2021/08/30 06:14:07;;;;;;;6.83;6.23;;;14.00;99.90;;;;;;4955208;29;20195;-78
2021/08/30 06:16:35;;;;;;;8.33;7.63;;;14.00;99.90;;;;;;4943574;28;20223;-78
2021/08/30 06:19:02;;;;;;;10.40;9.60;;;14.10;99.90;;;;;;4950194;28;20711;-79
2021/08/30 06:21:28;;;;;;;8.07;7.27;;;14.10;99.90;;;;;;4944780;29;20206;-81
2021/08/30 06:23:55;;;;;;;7.17;6.53;;;14.10;99.90;;;;;;4942411;29;20203;-79
2021/08/30 06:26:22;;;;;;;7.70;7.00;;;14.20;99.90;;;;;;4943249;29;20211;-80
2021/08/30 06:28:49;;;;;;;7.73;7.03;;;14.20;99.90;;;;;;4953887;29;20236;-79
2021/08/30 06:31:15;;;;;;;7.33;6.70;;;14.30;99.90;;;;;;4950686;28;20212;-83
2021/08/30 06:33:44;;;;;;;12.47;7.27;;;14.40;99.90;;;;;;4947160;29;20233;-77
2021/08/30 06:36:10;;;;;;;7.37;6.67;;;14.40;99.90;;;;;;4954063;29;20315;-78
2021/08/30 06:38:38;;;;;;;7.40;6.70;;;14.50;99.90;;;;;;4953145;28;20218;-78
2021/08/30 06:41:05;;;;;;;7.13;6.53;;;14.50;99.90;;;;;;4948064;29;20199;-78
2021/08/30 06:43:32;;;;;;;7.17;6.57;;;14.60;99.90;;;;;;4952916;29;20836;-78
2021/08/30 06:45:58;;;;;;;7.43;6.73;;;14.70;99.90;;;;;;4946006;29;20199;-77
2021/08/30 06:48:25;;;;;;;7.50;6.80;;;14.70;99.90;;;;;;4954492;28;20285;-77
2021/08/30 06:50:53;;;;;;;7.50;6.80;;;14.80;99.90;;;;;;4953588;28;20199;-77
2021/08/30 06:53:20;;;;;;;9.97;7.30;;;14.80;99.90;;;;;;4946289;29;20770;-77
2021/08/30 06:55:47;;;;;;;8.90;7.67;;;14.80;99.90;;;;;;4947656;29;20267;-80
2021/08/30 06:58:14;;;;;;;12.40;7.83;;;14.80;99.90;;;;;;4953225;29;20223;-81
2021/08/30 07:00:40;;;;;;;8.50;7.70;;;15.00;99.90;;;;;;4945278;28;20204;-78
2021/08/30 07:03:08;;;;;;;8.17;7.47;;;15.10;99.90;;;;;;4949350;29;20258;-79
2021/08/30 07:05:35;;;;;;;8.70;7.90;;;15.20;99.90;;;;;;4947470;28;20199;-77
2021/08/30 07:08:04;;;;;;;8.10;7.37;;;15.40;99.90;;;;;;4955957;28;20223;-79
2021/08/30 07:10:31;;;;;;;7.93;7.17;;;15.50;99.90;;;;;;4955812;29;20672;-78
2021/08/30 07:12:57;;;;;;;8.07;7.37;;;15.50;99.90;;;;;;4955135;29;20203;-77
2021/08/30 07:15:24;;;;;;;7.97;7.17;;;15.50;99.90;;;;;;4954798;28;20230;-76
2021/08/30 07:17:51;;;;;;;8.20;7.40;;;15.40;99.90;;;;;;4970738;28;20226;-77
2021/08/30 07:20:18;;;;;;;8.90;6.67;;;15.40;99.90;;;;;;4954207;29;20202;-79
2021/08/30 07:22:45;;;;;;;7.57;6.87;;;15.40;99.90;;;;;;4955576;29;20206;-77
2021/08/30 07:25:13;;;;;;;8.07;7.27;;;15.40;99.90;;;;;;4947196;29;20202;-78
2021/08/30 07:27:40;;;;;;;7.73;7.03;;;15.40;99.90;;;;;;4949961;29;20743;-78
2021/08/30 07:30:08;;;;;;;7.53;6.37;;;15.50;99.90;;;;;;4961973;29;20206;-78
2021/08/30 07:32:35;;;;;;;7.60;6.90;;;15.50;99.90;;;;;;4951319;28;20211;-79
2021/08/30 07:35:02;;;;;;;8.03;7.23;;;15.80;99.90;;;;;;4953607;28;20195;-79
2021/08/30 07:37:28;;;;;;;10.27;7.60;;;16.00;99.90;;;;;;4956261;29;20233;-78
2021/08/30 07:39:55;;;;;;;7.40;6.70;;;16.20;99.90;;;;;;4953482;29;20206;-78
2021/08/30 07:42:23;;;;;;;10.80;9.80;;;16.20;99.90;;;;;;4951284;29;20198;-78
2021/08/30 07:44:50;;;;;;;12.93;11.90;;;16.20;99.90;;;;;;4960178;28;20254;-82
2021/08/30 07:47:17;;;;;;;10.27;9.33;;;16.10;99.90;;;;;;4960192;28;20233;-78
2021/08/30 07:49:44;;;;;;;8.03;7.33;;;16.20;99.90;;;;;;4951854;29;20210;-77
2021/08/30 07:52:10;;;;;;;7.20;6.50;;;16.20;99.90;;;;;;4954253;28;20201;-78
2021/08/30 07:54:37;;;;;;;8.20;7.50;;;16.10;99.90;;;;;;4954477;29;20209;-77
2021/08/30 07:57:05;;;;;;;7.70;7.00;;;16.00;99.90;;;;;;4953024;29;20211;-77
2021/08/30 07:59:33;;;;;;;8.00;7.20;;;15.90;99.90;;;;;;4956621;28;20210;-78
2021/08/30 08:02:00;;;;;;;7.90;7.20;;;15.90;99.90;;;;;;4953767;29;20218;-79
2021/08/30 08:04:26;;;;;;;7.87;7.10;;;15.90;99.90;;;;;;4945519;29;20261;-79
2021/08/30 08:06:53;;;;;;;7.73;7.03;;;15.90;99.90;;;;;;4958717;29;20200;-79
2021/08/30 08:09:20;;;;;;;9.03;7.43;;;15.80;99.90;;;;;;4951859;28;20206;-80
2021/08/30 08:11:47;;;;;;;8.77;7.97;;;15.80;99.90;;;;;;4958913;29;20638;-80
2021/08/30 08:14:14;;;;;;;8.47;7.67;;;15.80;99.90;;;;;;4951005;29;20209;-81
2021/08/30 08:16:43;;;;;;;8.20;7.40;;;15.70;99.90;;;;;;4953885;29;20231;-77
2021/08/30 08:19:10;;;;;;;8.90;8.00;;;15.70;99.90;;;;;;4956469;29;20748;-80
2021/08/30 08:21:38;;;;;;;8.93;8.03;;;15.70;99.90;;;;;;4959169;28;20692;-78
2021/08/30 08:24:06;;;;;;;9.70;8.80;;;15.70;99.90;;;;;;4955531;28;20196;-83
2021/08/30 08:26:33;;;;;;;9.63;8.67;;;15.70;99.90;;;;;;4956319;29;20657;-79
2021/08/30 08:29:00;;;;;;;9.13;8.23;;;15.80;99.90;;;;;;4952230;29;20727;-78
2021/08/30 08:31:27;;;;;;;9.63;8.73;;;15.80;99.90;;;;;;4949516;29;20203;-79
2021/08/30 08:33:56;;;;;;;9.40;8.50;;;15.90;99.90;;;;;;4950892;28;20298;-78
2021/08/30 08:36:23;;;;;;;9.40;8.47;;;16.00;99.90;;;;;;4958032;29;20231;-79
2021/08/30 08:38:50;;;;;;;9.07;8.17;;;16.00;99.90;;;;;;4957822;28;20656;-79
2021/08/30 08:41:16;;;;;;;10.73;9.07;;;16.10;99.90;;;;;;4955243;29;20200;-76
2021/08/30 08:43:44;;;;;;;9.40;8.50;;;16.10;99.90;;;;;;4958025;29;20212;-77
2021/08/30 08:46:10;;;;;;;8.57;7.77;;;16.10;99.90;;;;;;4957673;29;20208;-78
2021/08/30 08:48:37;;;;;;;8.70;7.80;;;16.00;99.90;;;;;;4958007;29;20279;-77
2021/08/30 08:51:05;;;;;;;8.87;7.97;;;16.00;99.90;;;;;;4958576;29;20211;-77
2021/08/30 08:53:32;;;;;;;8.20;7.40;;;16.00;99.90;;;;;;4957206;29;20256;-77
2021/08/30 08:55:59;;;;;;;7.63;6.93;;;16.10;99.90;;;;;;4955858;29;20205;-77
2021/08/30 08:58:26;;;;;;;8.40;7.60;;;16.10;99.90;;;;;;4957689;29;20228;-77
2021/08/30 09:01:10;;;;;;;8.80;8.00;;;16.10;99.90;;;;;;4972339;28;20260;-77
2021/08/30 09:03:37;;;;;;;8.30;7.47;;;16.20;99.90;;;;;;4954663;29;20221;-77
2021/08/30 09:06:06;;;;;;;9.67;7.53;;;16.20;99.90;;;;;;4957106;28;20203;-77
2021/08/30 09:08:40;;;;;;;8.37;7.43;;;16.20;99.90;;;;;;4954174;29;20219;-77
2021/08/30 09:11:15;;;;;;;8.23;7.47;;;16.30;99.90;;;;;;4957089;29;20205;-77
2021/08/30 09:13:50;;;;;;;8.70;7.90;;;16.40;99.90;;;;;;4957399;29;20270;-77
2021/08/30 09:16:18;;;;;;;8.27;7.50;;;16.50;99.90;;;;;;4958066;29;20254;-79
2021/08/30 09:18:45;;;;;;;7.67;6.87;;;16.60;99.90;;;;;;4948364;28;20589;-78
2021/08/30 09:21:15;;;;;;;8.03;7.20;;;16.80;99.90;;;;;;4952383;28;20217;-78
2021/08/30 09:23:43;;;;;;;7.90;7.13;;;16.80;99.90;;;;;;4954701;29;20258;-78
2021/08/30 09:26:15;;;;;;;7.60;6.90;;;16.80;99.90;;;;;;4955242;29;20208;-77
2021/08/30 09:28:49;;;;;;;7.33;6.63;;;16.70;99.90;;;;;;4956593;29;20223;-80
2021/08/30 09:31:16;;;;;;;7.80;6.80;;;16.70;99.90;;;;;;4956726;29;20687;-78
2021/08/30 09:33:47;;;;;;;7.10;6.40;;;16.60;99.90;;;;;;4958266;29;20270;-77
2021/08/30 09:36:16;;;;;;;7.27;6.57;;;16.40;99.90;;;;;;4950310;29;20241;-77
2021/08/30 09:38:43;;;;;;;7.43;6.67;;;16.30;99.90;;;;;;4957460;28;20283;-77
2021/08/30 09:41:12;;;;;;;8.30;7.50;;;16.40;99.90;;;;;;4946795;29;20210;-77
2021/08/30 09:43:38;;;;;;;7.03;6.33;;;16.50;99.90;;;;;;4957062;28;20636;-79
2021/08/30 09:46:08;;;;;;;6.33;5.73;;;16.80;99.90;;;;;;4962013;29;20196;-78
2021/08/30 09:48:35;;;;;;;6.87;6.27;;;17.20;99.90;;;;;;4961725;29;20310;-79
2021/08/30 09:51:04;;;;;;;9.70;8.90;;;17.50;99.90;;;;;;4958441;28;20206;-79
2021/08/30 09:53:33;;;;;;;10.73;9.73;;;17.90;99.90;;;;;;4957071;29;20212;-80
2021/08/30 09:56:01;;;;;;;10.47;9.70;;;18.20;99.90;;;;;;4959513;29;20202;-80
2021/08/30 09:58:29;;;;;;;6.40;4.90;;;18.70;99.90;;;;;;4950399;29;20223;-79
2021/08/30 10:00:57;;;;;;;5.40;4.90;;;18.90;99.90;;;;;;4952260;29;20199;-80
2021/08/30 10:03:29;;;;;;;6.97;5.30;;;19.10;99.90;;;;;;4954233;28;20251;-79
2021/08/30 10:05:57;;;;;;;7.60;6.90;;;19.30;99.90;;;;;;4957911;29;20207;-79
2021/08/30 10:08:25;;;;;;;13.27;12.37;;;19.30;99.90;;;;;;4960285;28;20230;-81
2021/08/30 10:10:53;;;;;;;13.27;12.40;;;19.10;99.90;;;;;;4958653;29;20305;-80
2021/08/30 10:13:20;;;;;;;6.87;6.17;;;19.00;99.90;;;;;;4958520;28;20204;-79
2021/08/30 10:15:50;;;;;;;6.60;5.90;;;18.90;99.90;;;;;;4955996;29;20210;-81
2021/08/30 10:18:18;;;;;;;7.27;6.10;;;18.90;99.90;;;;;;4948622;28;20716;-82
2021/08/30 10:20:49;;;;;;;14.87;13.90;;;18.90;99.90;;;;;;4945041;29;20216;-82
2021/08/30 10:23:16;;;;;;;6.67;6.07;;;18.90;99.90;;;;;;4953439;29;20251;-82
2021/08/30 10:25:55;;;;;;;7.37;6.50;;;19.00;99.90;;;;;;4953785;29;20256;-81
2021/08/30 10:28:33;;;;;;;13.27;12.33;;;19.20;99.90;;;;;;4946969;28;20748;-78
2021/08/30 10:31:00;;;;;;;14.90;13.90;;;19.30;99.90;;;;;;4955793;28;20213;-77
2021/08/30 10:33:36;;;;;;;12.27;11.37;;;19.40;99.90;;;;;;4961148;29;20247;-79
2021/08/30 10:36:12;;;;;;;16.83;15.67;;;19.30;99.90;;;;;;4962100;28;20558;-79
2021/08/30 10:38:39;;;;;;;17.93;16.73;;;19.00;99.90;;;;;;4950066;29;20259;-78
2021/08/30 10:41:17;;;;;;;8.47;7.63;;;18.60;99.90;;;;;;4957631;28;20228;-77
2021/08/30 10:43:45;;;;;;;14.50;13.50;;;18.20;99.90;;;;;;4955912;29;20688;-78
2021/08/30 10:46:16;;;;;;;8.67;7.87;;;18.00;99.90;;;;;;4957022;29;20285;-77
2021/08/30 10:48:51;;;;;;;15.40;14.13;;;17.80;99.90;;;;;;4956462;29;20739;-77
2021/08/30 10:51:21;;;;;;;17.33;16.13;;;17.80;99.90;;;;;;4956754;29;20202;-77
2021/08/30 10:53:59;;;;;;;11.50;10.20;;;17.70;99.90;;;;;;4957218;29;20814;-77
2021/08/30 10:56:28;;;;;;;11.37;10.33;;;17.50;99.90;;;;;;4956852;29;20249;-77
2021/08/30 10:58:59;;;;;;;17.53;16.23;;;17.30;99.90;;;;;;4955229;29;20285;-77
2021/08/30 11:01:26;;;;;;;9.70;8.80;;;17.10;99.90;;;;;;4956833;29;20732;-77
2021/08/30 11:03:57;;;;;;;10.37;9.47;;;17.20;99.90;;;;;;4954388;29;20257;-76
2021/08/30 11:06:24;;;;;;;12.90;11.80;;;17.20;99.90;;;;;;4954244;29;20213;-77
2021/08/30 11:08:51;;;;;;;13.83;12.57;;;17.20;99.90;;;;;;4971533;28;20240;-77
2021/08/30 11:11:19;;;;;;;10.53;9.43;;;17.10;99.90;;;;;;4956634;29;20669;-79
2021/08/30 11:14:03;;;;;;;11.33;10.23;;;17.00;99.90;;;;;;4959334;29;20290;-79
2021/08/30 11:16:31;;;;;;;11.47;10.27;;;16.90;99.90;;;;;;4955260;29;20204;-80
2021/08/30 11:19:01;;;;;;;9.33;8.23;;;16.90;99.90;;;;;;4957940;29;20236;-77
2021/08/30 11:21:39;;;;;;;18.40;17.10;;;16.90;99.90;;;;;;4957937;29;20214;-79
2021/08/30 11:24:08;;;;;;;18.57;17.27;;;16.90;99.90;;;;;;4955721;29;20204;-79
2021/08/30 11:26:37;;;;;;;18.63;17.23;;;16.90;99.90;;;;;;4955879;28;20246;-79
2021/08/30 11:29:08;;;;;;;20.10;18.80;;;16.80;99.90;;;;;;4961112;28;20712;-79
2021/08/30 11:31:39;;;;;;;18.43;17.03;;;16.90;99.90;;;;;;4956278;28;20657;-80
2021/08/30 11:34:07;;;;;;;18.47;17.23;;;17.00;99.90;;;;;;4957195;29;20207;-79
2021/08/30 11:36:47;;;;;;;19.17;17.67;;;17.20;99.90;;;;;;4955848;28;20209;-78
2021/08/30 11:39:15;;;;;;;19.53;18.17;;;17.40;99.90;;;;;;4951808;29;20226;-78
2021/08/30 11:41:43;;;;;;;9.63;8.63;;;17.60;99.90;;;;;;4955711;28;20663;-82
2021/08/30 11:44:14;;;;;;;10.23;9.23;;;17.60;99.90;;;;;;4954144;29;20210;-80
2021/08/30 11:46:42;;;;;;;10.30;9.30;;;17.60;99.90;;;;;;4952918;29;20273;-79
2021/08/30 11:49:09;;;;;;;10.90;9.80;;;17.40;99.90;;;;;;4951142;29;20239;-79
2021/08/30 11:54:10;;;;;;;10.90;9.90;;;17.20;99.90;;;;;;4915084;29;20223;-84
2021/08/30 11:56:43;;;;;;;11.77;10.43;;;17.10;99.90;;;;;;4933066;29;20353;-83
2021/08/30 11:59:58;;;;;;;12.13;9.57;;;17.00;99.90;;;;;;4926908;29;20735;-84
2021/08/30 12:02:46;;;;;;;13.90;12.60;;;17.10;99.90;;;;;;4925694;29;20233;-84
2021/08/30 12:05:23;;;;;;;15.47;14.23;;;17.30;99.90;;;;;;4910439;29;20212;-84
2021/08/30 12:08:00;;;;;;;14.80;13.67;;;17.50;99.90;;;;;;4908954;29;20290;-84
2021/08/30 12:10:40;;;;;;;14.60;13.47;;;18.00;99.90;;;;;;4914579;29;20245;-84
2021/08/30 12:16:00;;;;;;;13.13;12.13;;;18.90;99.90;;;;;;4919485;29;20202;-84
2021/08/30 12:18:51;;;;;;;9.10;8.23;;;19.30;99.90;;;;;;4917358;29;20249;-84
2021/08/30 12:28:25;;;;;;;15.87;14.87;;;19.60;99.90;;;;;;4919004;29;20684;-85
2021/08/30 12:35:16;;;;;;;;;;;;;;;;;;;;;
2021/08/30 12:38:06;;;;;;;17.73;16.43;;;18.90;99.90;;;;;;4878781;29;20252;-84
2021/08/30 12:41:10;;;;;;;18.43;17.07;;;18.70;99.90;;;;;;4931447;28;20206;-86
2021/08/30 12:43:46;;;;;;;17.80;16.60;;;18.60;99.90;;;;;;4915203;29;20230;-85
2021/08/30 12:46:45;;;;;;;18.50;17.30;;;18.60;99.90;;;;;;4916986;29;20294;-83
2021/08/30 12:49:41;;;;;;;17.87;16.67;;;18.50;99.90;;;;;;4904357;29;20201;-84
2021/08/30 12:52:20;;;;;;;18.03;16.73;;;18.50;99.90;;;;;;4912754;29;20235;-84
2021/08/30 12:55:04;;;;;;;18.10;16.70;;;18.60;99.90;;;;;;4916990;29;20212;-84
2021/08/30 12:57:51;;;;;;;17.87;16.67;;;18.70;99.90;;;;;;4915070;29;20212;-84
2021/08/30 13:03:54;;;;;;;17.70;16.50;;;18.70;99.90;;;;;;4985434;23;20328;-85
2021/08/30 13:06:43;;;;;;;17.33;16.03;;;18.70;99.90;;;;;;4993058;28;20202;-84
2021/08/30 13:09:39;;;;;;;18.13;16.73;;;18.50;99.90;;;;;;5003839;28;20218;-85
2021/08/30 13:12:19;;;;;;;18.40;16.90;;;18.60;99.90;;;;;;4990558;28;20222;-79
2021/08/30 13:14:53;;;;;;;17.27;16.00;;;18.70;99.90;;;;;;4973811;28;20400;-82
2021/08/30 13:17:21;;;;;;;18.27;16.90;;;18.70;99.90;;;;;;4973231;28;20217;-84
2021/08/30 13:19:48;;;;;;;17.93;16.53;;;18.80;99.90;;;;;;4969293;28;20224;-85
2021/08/30 13:22:23;;;;;;;16.97;15.77;;;18.60;99.90;;;;;;4972991;28;20741;-85
2021/08/30 13:24:51;;;;;;;16.07;14.97;;;18.50;99.90;;;;;;4970461;28;20206;-85
2021/08/30 13:27:23;;;;;;;17.77;16.47;;;18.50;99.90;;;;;;4961716;28;20214;-85
2021/08/30 13:29:50;;;;;;;18.03;16.73;;;18.50;99.90;;;;;;4981135;28;20205;-85
2021/08/30 13:32:31;;;;;;;17.80;16.40;;;18.40;99.90;;;;;;4989705;28;20751;-85
2021/08/30 13:35:02;;;;;;;18.90;17.43;;;18.30;99.90;;;;;;4968142;28;20281;-85
2021/08/30 13:37:29;;;;;;;17.80;16.47;;;18.40;99.90;;;;;;4964027;28;20203;-85
2021/08/30 13:39:55;;;;;;;18.27;16.90;;;18.50;99.90;;;;;;4965991;28;20223;-84
2021/08/30 13:42:24;;;;;;;11.67;10.67;;;18.60;99.90;;;;;;4968605;28;20234;-84
2021/08/30 13:44:56;;;;;;;9.67;8.47;;;18.60;99.90;;;;;;4973397;28;20207;-85
2021/08/30 13:47:23;;;;;;;10.50;9.50;;;18.50;99.90;;;;;;4973289;28;20273;-84
2021/08/30 13:49:50;;;;;;;12.53;11.43;;;18.20;99.90;;;;;;4957041;28;20199;-80
2021/08/30 13:52:24;;;;;;;22.30;20.80;;;18.10;99.90;;;;;;4969058;28;20317;-84
2021/08/30 13:54:51;;;;;;;7.37;6.57;;;18.00;99.90;;;;;;4972978;28;20233;-84
2021/08/30 13:58:01;;;;;;;;;;;;;;;;;;;;;
2021/08/30 14:01:12;;;;;;;10.17;9.37;;;18.00;99.90;;;;;;4981928;28;20663;-83
2021/08/30 14:08:50;;;;;;;15.33;14.33;;;18.30;99.90;;;;;;4966119;28;20703;-83
2021/08/30 14:12:27;;;;;;;12.33;11.43;;;18.40;99.90;;;;;;4891910;29;20207;-85
2021/08/30 14:15:16;;;;;;;12.07;9.67;;;18.60;99.90;;;;;;4897876;29;20215;-81
2021/08/30 14:29:52;;;;;;;9.47;8.63;;;18.20;99.90;;;;;;4720698;30;20223;-83
2021/08/30 14:46:08;;;;;;;10.33;9.43;;;18.10;99.90;;;;;;4891578;29;20207;-83
2021/08/30 15:03:53;;;;;;;6.40;5.80;;;17.70;99.90;;;;;;4930512;29;20238;-83
2021/08/30 15:06:38;;;;;;;20.30;18.73;;;17.90;99.90;;;;;;4941039;29;20222;-83
2021/08/30 15:15:37;;;;;;;8.07;7.37;;;18.00;99.90;;;;;;4918456;29;20216;-81
2021/08/30 15:18:05;;;;;;;10.20;9.33;;;17.90;99.90;;;;;;4928113;29;20236;-76
2021/08/30 15:20:36;;;;;;;8.20;7.50;;;17.90;99.90;;;;;;4920818;29;20709;-80
2021/08/30 15:23:03;;;;;;;8.20;7.40;;;17.90;99.90;;;;;;4912790;29;20211;-80
2021/08/30 15:25:30;;;;;;;8.87;7.97;;;17.80;99.90;;;;;;4910390;29;20225;-80
2021/08/30 15:27:57;;;;;;;10.60;9.73;;;17.70;99.90;;;;;;4904005;29;20212;-79
2021/08/30 15:30:25;;;;;;;9.23;8.33;;;17.60;99.90;;;;;;4906091;29;20231;-79
2021/08/30 15:32:52;;;;;;;10.00;8.33;;;17.50;99.90;;;;;;4912783;29;20628;-80
2021/08/30 15:35:19;;;;;;;10.80;9.90;;;17.50;99.90;;;;;;4910589;29;20280;-81